Time;durP1;ratioP1;P1;durP2;ratioP2;P2;SDS_P1;SDS_P2;PMS_P1;PMS_P2;Temp;Humidity;BMP_temperature;BMP_pressure;BME280_temperature;BME280_humidity;BME280_pressure;Samples;Min_cycle;Max_cycle;Signal;HPM_P1;HPM_P2
2022/07/19 00:00:15;;;;;;;4.65;2.20;;;25.30;47.90;;;;;;5073289;28;20055;-80
2022/07/19 00:02:41;;;;;;;4.85;2.58;;;25.30;47.90;;;;;;5059718;28;20138;-78
2022/07/19 00:05:09;;;;;;;3.88;2.00;;;25.40;48.00;;;;;;5071447;28;20032;-79
2022/07/19 00:07:35;;;;;;;4.18;2.13;;;25.50;47.90;;;;;;5071865;28;20585;-79
2022/07/19 00:10:03;;;;;;;4.38;2.22;;;25.50;47.60;;;;;;5071450;28;20028;-78
2022/07/19 00:12:28;;;;;;;3.92;2.28;;;25.60;47.40;;;;;;5072065;28;20107;-79
2022/07/19 00:14:54;;;;;;;3.90;1.88;;;25.80;47.00;;;;;;5072528;28;20088;-77
2022/07/19 00:17:20;;;;;;;4.05;2.00;;;25.70;46.90;;;;;;5072717;28;20111;-79
2022/07/19 00:19:45;;;;;;;5.55;2.58;;;25.70;47.00;;;;;;5072649;28;20012;-79
2022/07/19 00:22:11;;;;;;;5.75;2.45;;;25.60;47.00;;;;;;5072239;28;20078;-79
2022/07/19 00:24:37;;;;;;;4.90;2.33;;;25.50;47.30;;;;;;5072156;28;20102;-80
2022/07/19 00:27:02;;;;;;;3.63;2.28;;;25.30;47.40;;;;;;5070401;28;20031;-78
2022/07/19 00:29:28;;;;;;;4.55;2.20;;;25.30;47.50;;;;;;5073870;28;20036;-80
2022/07/19 00:31:54;;;;;;;4.68;2.25;;;25.20;47.50;;;;;;5054352;28;20040;-80
2022/07/19 00:34:20;;;;;;;4.97;2.20;;;25.10;47.80;;;;;;5073805;28;20033;-80
2022/07/19 00:36:45;;;;;;;4.68;2.53;;;25.10;47.80;;;;;;5072915;28;20021;-80
2022/07/19 00:39:11;;;;;;;3.65;2.25;;;25.00;47.80;;;;;;5056270;28;20032;-80
2022/07/19 00:41:41;;;;;;;6.88;2.10;;;25.00;47.80;;;;;;5072479;28;20486;-80
2022/07/19 00:44:09;;;;;;;3.65;2.40;;;25.00;48.10;;;;;;5073560;28;20025;-80
2022/07/19 00:46:36;;;;;;;4.40;2.03;;;25.10;48.10;;;;;;5073583;28;20108;-80
2022/07/19 00:49:04;;;;;;;6.18;2.15;;;25.20;48.20;;;;;;5073681;28;20024;-79
2022/07/19 00:51:32;;;;;;;4.35;2.00;;;25.20;48.00;;;;;;5071920;28;20028;-79
2022/07/19 00:54:00;;;;;;;3.65;1.98;;;25.10;48.30;;;;;;5071769;28;20036;-78
2022/07/19 00:56:27;;;;;;;5.80;2.10;;;25.20;48.50;;;;;;5069380;28;20033;-79
2022/07/19 00:58:54;;;;;;;4.47;2.20;;;25.20;49.10;;;;;;5055937;28;20058;-80
2022/07/19 01:01:19;;;;;;;4.82;2.28;;;25.30;48.90;;;;;;5072581;28;20029;-79
2022/07/19 01:03:48;;;;;;;6.15;2.42;;;25.30;48.90;;;;;;5073218;28;20482;-80
2022/07/19 01:06:14;;;;;;;4.50;2.40;;;25.40;49.00;;;;;;5055949;28;20030;-80
2022/07/19 01:08:41;;;;;;;3.40;2.30;;;25.50;48.70;;;;;;5073693;28;20051;-78
2022/07/19 01:11:06;;;;;;;5.90;2.20;;;25.70;48.80;;;;;;5073893;28;20101;-80
2022/07/19 01:13:33;;;;;;;4.50;2.00;;;25.60;48.20;;;;;;5071776;28;20453;-81
2022/07/19 01:15:59;;;;;;;3.63;2.08;;;25.40;48.40;;;;;;5072609;28;20099;-79
2022/07/19 01:18:25;;;;;;;3.83;2.30;;;25.10;48.70;;;;;;5072376;28;20030;-80
2022/07/19 01:20:51;;;;;;;4.30;2.03;;;25.10;48.90;;;;;;5072665;28;20416;-79
2022/07/19 01:23:17;;;;;;;3.75;2.30;;;24.80;49.00;;;;;;5055180;28;20459;-79
2022/07/19 01:25:43;;;;;;;5.18;2.10;;;24.90;49.20;;;;;;5055350;28;20450;-79
2022/07/19 01:28:09;;;;;;;3.15;2.10;;;25.00;49.40;;;;;;5071348;28;20120;-79
2022/07/19 01:30:35;;;;;;;4.15;2.17;;;24.90;49.60;;;;;;5072760;28;20020;-78
2022/07/19 01:33:02;;;;;;;3.60;2.10;;;24.90;50.00;;;;;;5073065;28;20166;-78
2022/07/19 01:35:28;;;;;;;4.57;2.40;;;24.80;50.20;;;;;;5072909;28;20032;-79
2022/07/19 01:37:55;;;;;;;4.32;2.45;;;25.00;49.80;;;;;;5072672;28;20399;-79
2022/07/19 01:40:22;;;;;;;3.63;2.10;;;25.10;49.40;;;;;;5072783;28;20025;-80
2022/07/19 01:42:48;;;;;;;4.10;2.20;;;25.20;49.40;;;;;;5070589;28;20036;-79
2022/07/19 01:45:15;;;;;;;3.20;1.95;;;25.30;49.40;;;;;;5072841;28;20036;-79
2022/07/19 01:47:41;;;;;;;4.80;2.95;;;25.30;49.10;;;;;;5071809;28;20043;-80
2022/07/19 01:50:08;;;;;;;4.38;2.30;;;25.20;49.20;;;;;;5072051;28;20025;-80
2022/07/19 01:52:35;;;;;;;4.05;2.00;;;24.90;49.40;;;;;;5071927;28;20474;-80
2022/07/19 01:55:00;;;;;;;3.92;2.28;;;24.70;49.60;;;;;;5073796;28;20021;-79
2022/07/19 01:57:28;;;;;;;9.18;2.75;;;24.60;49.70;;;;;;5073217;28;20032;-79
2022/07/19 01:59:54;;;;;;;3.65;2.22;;;24.60;49.80;;;;;;5073005;28;20437;-79
2022/07/19 02:02:22;;;;;;;6.03;2.30;;;24.60;49.80;;;;;;5072766;28;20029;-77
2022/07/19 02:04:48;;;;;;;4.93;2.00;;;24.30;50.30;;;;;;5072848;28;20085;-79
2022/07/19 02:07:14;;;;;;;4.40;2.10;;;23.90;50.90;;;;;;5072677;28;20028;-79
2022/07/19 02:09:39;;;;;;;4.78;2.28;;;23.70;51.40;;;;;;5072672;28;20064;-79
2022/07/19 02:12:05;;;;;;;4.30;2.40;;;24.00;51.10;;;;;;5071787;28;20076;-79
2022/07/19 02:14:31;;;;;;;5.53;2.10;;;24.30;50.60;;;;;;5071555;28;20039;-79
2022/07/19 02:16:56;;;;;;;5.32;2.05;;;24.60;50.30;;;;;;5072849;28;20052;-77
2022/07/19 02:19:22;;;;;;;3.22;1.90;;;24.60;49.90;;;;;;5072624;28;20099;-78
2022/07/19 02:21:48;;;;;;;5.50;2.20;;;24.70;49.70;;;;;;5072698;28;20028;-80
2022/07/19 02:24:14;;;;;;;7.22;2.22;;;24.70;49.50;;;;;;5068834;28;20453;-78
2022/07/19 02:26:39;;;;;;;3.75;1.95;;;24.70;49.70;;;;;;5071154;28;20074;-79
2022/07/19 02:29:06;;;;;;;4.85;2.15;;;24.70;49.80;;;;;;5071143;28;20032;-78
2022/07/19 02:31:32;;;;;;;4.00;1.90;;;24.70;49.90;;;;;;5071969;28;20483;-79
2022/07/19 02:33:58;;;;;;;3.13;2.00;;;24.80;49.80;;;;;;5072798;28;20090;-79
2022/07/19 02:36:23;;;;;;;4.10;2.10;;;24.70;49.70;;;;;;5073215;28;20024;-79
2022/07/19 02:38:49;;;;;;;4.22;2.30;;;24.80;50.00;;;;;;5068991;28;20090;-78
2022/07/19 02:41:15;;;;;;;3.33;2.10;;;24.70;49.90;;;;;;5071090;28;20455;-79
2022/07/19 02:43:41;;;;;;;3.70;1.90;;;24.70;49.90;;;;;;5071543;28;20024;-79
2022/07/19 02:46:06;;;;;;;6.35;2.20;;;24.70;50.10;;;;;;5075105;28;20527;-80
2022/07/19 02:48:32;;;;;;;5.00;2.25;;;24.50;49.80;;;;;;5055893;28;20035;-79
2022/07/19 02:50:58;;;;;;;3.55;2.00;;;24.40;50.10;;;;;;5076696;28;20074;-79
2022/07/19 02:53:24;;;;;;;3.83;2.03;;;24.30;50.40;;;;;;5075268;28;20119;-79
2022/07/19 02:55:50;;;;;;;4.13;2.00;;;24.40;51.00;;;;;;5075754;28;20028;-79
2022/07/19 02:58:16;;;;;;;4.43;2.20;;;24.40;50.30;;;;;;5074563;28;20067;-79
2022/07/19 03:00:42;;;;;;;3.78;2.10;;;24.60;50.10;;;;;;5074320;28;20052;-79
2022/07/19 03:05:52;;;;;;;4.97;2.40;;;24.60;50.20;;;;;;5075452;28;20094;-79
2022/07/19 03:08:18;;;;;;;3.97;2.05;;;24.60;49.80;;;;;;5074446;28;20441;-79
2022/07/19 03:10:44;;;;;;;3.85;2.10;;;24.60;49.70;;;;;;5059058;28;20021;-79
2022/07/19 03:13:09;;;;;;;4.55;1.90;;;24.60;49.70;;;;;;5074895;28;20098;-79
2022/07/19 03:15:36;;;;;;;3.42;2.10;;;24.60;49.80;;;;;;5046674;28;20027;-79
2022/07/19 03:18:02;;;;;;;3.47;1.95;;;24.30;50.00;;;;;;5044809;28;20037;-79
2022/07/19 03:20:28;;;;;;;7.53;3.17;;;24.30;50.30;;;;;;5072517;28;20028;-79
2022/07/19 03:22:54;;;;;;;4.30;2.10;;;24.00;50.60;;;;;;5074029;28;20028;-79
2022/07/19 03:25:19;;;;;;;4.07;2.20;;;24.00;50.70;;;;;;5075370;28;20020;-78
2022/07/19 03:27:45;;;;;;;6.25;2.00;;;24.20;50.50;;;;;;5075181;28;20028;-79
2022/07/19 03:30:11;;;;;;;4.03;2.20;;;24.30;50.40;;;;;;5074214;28;20033;-79
2022/07/19 03:32:36;;;;;;;4.85;2.30;;;24.40;50.20;;;;;;5075295;28;20069;-79
2022/07/19 03:35:03;;;;;;;4.95;2.20;;;24.40;50.10;;;;;;5074021;28;20048;-78
2022/07/19 03:37:28;;;;;;;3.58;2.05;;;24.40;50.20;;;;;;5075058;28;20025;-77
2022/07/19 03:39:54;;;;;;;7.63;2.25;;;24.40;50.20;;;;;;5075296;28;20024;-77
2022/07/19 03:42:20;;;;;;;8.18;2.30;;;24.30;50.90;;;;;;5074724;28;20357;-77
2022/07/19 03:44:45;;;;;;;3.97;2.10;;;24.40;51.10;;;;;;5075517;28;20021;-78
2022/07/19 03:47:11;;;;;;;4.65;2.20;;;24.60;51.60;;;;;;5073318;28;20040;-78
2022/07/19 03:49:37;;;;;;;3.80;2.10;;;24.60;50.80;;;;;;5074163;28;20063;-77
2022/07/19 03:52:03;;;;;;;3.78;1.90;;;24.70;50.70;;;;;;5073400;28;20051;-77
2022/07/19 03:54:28;;;;;;;4.50;2.10;;;24.60;51.60;;;;;;5074330;28;20063;-79
2022/07/19 03:56:55;;;;;;;3.30;2.10;;;24.60;51.50;;;;;;5072865;28;20059;-77
2022/07/19 03:59:22;;;;;;;4.65;2.30;;;24.60;51.90;;;;;;5075125;28;20027;-78
2022/07/19 04:05:16;;;;;;;6.70;2.05;;;24.60;51.70;;;;;;5075285;28;20108;-77
2022/07/19 04:07:42;;;;;;;4.60;2.05;;;24.60;51.80;;;;;;5071285;28;20016;-76
2022/07/19 04:10:08;;;;;;;4.53;2.10;;;24.40;52.00;;;;;;5071588;28;20033;-79
2022/07/19 04:12:34;;;;;;;5.28;2.20;;;24.60;52.10;;;;;;5054290;28;20132;-78
2022/07/19 04:15:00;;;;;;;5.15;2.10;;;24.60;51.90;;;;;;5071693;28;20525;-77
2022/07/19 04:17:26;;;;;;;3.83;2.20;;;24.70;51.70;;;;;;5073797;28;20028;-79
2022/07/19 04:19:52;;;;;;;20.90;3.42;;;24.80;51.60;;;;;;5072286;28;20115;-76
2022/07/19 04:22:18;;;;;;;10.48;2.50;;;24.80;51.90;;;;;;5072194;28;20029;-76
2022/07/19 04:24:44;;;;;;;6.00;2.17;;;24.70;52.50;;;;;;5072701;28;20043;-78
2022/07/19 04:27:10;;;;;;;6.60;2.50;;;24.60;52.90;;;;;;5055683;28;20039;-78
2022/07/19 04:29:37;;;;;;;4.40;2.30;;;24.70;52.80;;;;;;5055804;28;20405;-80
2022/07/19 04:32:03;;;;;;;4.95;2.03;;;24.80;52.70;;;;;;5084359;28;20067;-76
2022/07/19 04:34:28;;;;;;;6.82;2.30;;;24.90;52.50;;;;;;5073197;28;20384;-76
2022/07/19 04:36:54;;;;;;;4.85;2.00;;;24.90;52.60;;;;;;5054845;28;20047;-76
2022/07/19 04:39:20;;;;;;;8.95;2.35;;;25.10;52.20;;;;;;5055299;28;20186;-79
2022/07/19 04:41:45;;;;;;;4.07;2.03;;;25.50;52.00;;;;;;5073865;28;20413;-76
2022/07/19 04:44:11;;;;;;;4.78;2.03;;;25.60;51.60;;;;;;5070818;28;20040;-77
2022/07/19 04:46:37;;;;;;;5.95;2.03;;;25.70;51.50;;;;;;5071209;28;20024;-78
2022/07/19 04:49:02;;;;;;;3.85;2.00;;;25.70;51.60;;;;;;5073089;28;20396;-78
2022/07/19 04:51:28;;;;;;;5.05;2.10;;;25.80;51.60;;;;;;5072014;28;20104;-78
2022/07/19 04:53:54;;;;;;;6.38;1.73;;;25.90;51.60;;;;;;5071383;28;20043;-77
2022/07/19 04:56:21;;;;;;;4.95;2.20;;;26.00;51.70;;;;;;5072790;28;20052;-76
2022/07/19 04:58:47;;;;;;;3.92;2.17;;;25.90;50.80;;;;;;5071235;28;20033;-80
2022/07/19 05:01:12;;;;;;;3.10;1.90;;;25.70;48.90;;;;;;5056007;28;20115;-77
2022/07/19 05:03:38;;;;;;;6.05;2.38;;;25.70;49.10;;;;;;5078152;28;20024;-79
2022/07/19 05:06:04;;;;;;;3.75;2.05;;;25.50;50.00;;;;;;5071977;28;20017;-76
2022/07/19 05:08:30;;;;;;;3.28;2.03;;;25.60;49.10;;;;;;5067321;28;20032;-76
2022/07/19 05:10:55;;;;;;;4.35;2.20;;;25.80;48.60;;;;;;5084204;28;20067;-72
2022/07/19 05:13:21;;;;;;;3.42;2.00;;;26.10;46.30;;;;;;5073451;28;20368;-79
2022/07/19 05:15:47;;;;;;;3.30;1.77;;;25.60;47.20;;;;;;5086153;28;20074;-79
2022/07/19 05:18:12;;;;;;;3.38;1.88;;;26.10;46.00;;;;;;5051316;28;20032;-79
2022/07/19 05:20:38;;;;;;;4.30;2.28;;;26.60;46.20;;;;;;5074237;28;20028;-77
2022/07/19 05:23:04;;;;;;;4.85;2.10;;;27.00;45.80;;;;;;5072829;28;20110;-79
2022/07/19 05:25:30;;;;;;;5.30;1.80;;;26.80;46.10;;;;;;5072246;28;20021;-77
2022/07/19 05:27:58;;;;;;;5.30;2.17;;;26.90;44.70;;;;;;5071261;28;20024;-78
2022/07/19 05:30:24;;;;;;;3.58;2.20;;;27.10;45.30;;;;;;5065622;28;20612;-78
2022/07/19 05:32:50;;;;;;;5.78;2.28;;;27.40;45.40;;;;;;5064101;28;20051;-80
2022/07/19 05:35:16;;;;;;;4.03;2.08;;;27.70;45.30;;;;;;5054822;28;20032;-77
2022/07/19 05:37:41;;;;;;;3.90;1.80;;;28.10;45.80;;;;;;5057694;28;20037;-79
2022/07/19 05:40:07;;;;;;;4.35;2.05;;;28.30;44.90;;;;;;5055591;28;20056;-78
2022/07/19 05:42:33;;;;;;;5.78;1.90;;;28.40;44.20;;;;;;5055445;28;20458;-80
2022/07/19 05:44:59;;;;;;;5.65;2.00;;;28.40;44.00;;;;;;5073063;28;20035;-79
2022/07/19 05:47:25;;;;;;;4.50;1.90;;;28.30;43.60;;;;;;5072317;28;20033;-81
2022/07/19 05:49:51;;;;;;;4.85;2.10;;;27.80;43.30;;;;;;5072610;28;20016;-80
2022/07/19 05:52:17;;;;;;;5.97;3.00;;;27.80;43.50;;;;;;5069961;28;20129;-80
2022/07/19 05:54:42;;;;;;;5.78;2.20;;;28.10;44.40;;;;;;5071234;28;20033;-80
2022/07/19 05:57:08;;;;;;;5.60;2.33;;;27.70;43.50;;;;;;5074295;28;20024;-80
2022/07/19 05:59:35;;;;;;;4.47;2.00;;;27.70;43.90;;;;;;5056417;28;20021;-81
2022/07/19 06:02:01;;;;;;;4.05;2.08;;;27.70;43.40;;;;;;5073695;28;20024;-80
2022/07/19 06:04:27;;;;;;;3.72;1.83;;;27.70;43.90;;;;;;5056678;28;20025;-80
2022/07/19 06:06:53;;;;;;;3.63;2.00;;;28.10;43.70;;;;;;5056303;28;20033;-80
2022/07/19 06:09:19;;;;;;;3.70;2.30;;;28.60;43.40;;;;;;5072037;28;20032;-80
2022/07/19 06:11:45;;;;;;;5.63;2.00;;;28.80;44.20;;;;;;5071036;28;20039;-79
2022/07/19 06:14:12;;;;;;;4.97;2.03;;;28.80;43.30;;;;;;5059674;28;20132;-79
2022/07/19 06:16:40;;;;;;;5.28;2.00;;;28.50;43.80;;;;;;5035644;28;20021;-80
2022/07/19 06:19:06;;;;;;;3.55;1.80;;;28.40;44.80;;;;;;5053419;28;20039;-79
2022/07/19 06:21:33;;;;;;;3.50;1.98;;;28.40;43.80;;;;;;5057125;28;20104;-81
2022/07/19 06:23:59;;;;;;;3.63;1.88;;;28.60;43.20;;;;;;5055905;28;20017;-80
2022/07/19 06:26:26;;;;;;;4.13;2.08;;;29.00;43.70;;;;;;5056629;28;20120;-81
2022/07/19 06:28:52;;;;;;;6.70;2.35;;;29.30;43.90;;;;;;5056410;28;20021;-78
2022/07/19 06:31:18;;;;;;;3.90;1.90;;;29.70;43.20;;;;;;5056583;28;20033;-77
2022/07/19 06:33:45;;;;;;;3.60;2.00;;;29.90;42.90;;;;;;5056526;28;20107;-80
2022/07/19 06:36:11;;;;;;;4.60;1.92;;;29.90;43.10;;;;;;5057866;28;20021;-82
2022/07/19 06:38:37;;;;;;;4.55;1.90;;;30.10;42.90;;;;;;5057319;28;20047;-79
2022/07/19 06:41:03;;;;;;;6.63;1.95;;;30.40;42.50;;;;;;5057666;28;20412;-77
2022/07/19 06:43:29;;;;;;;5.10;2.10;;;30.70;41.70;;;;;;5057860;28;20021;-75
2022/07/19 06:45:55;;;;;;;5.78;1.90;;;30.90;41.30;;;;;;5056716;28;20464;-77
2022/07/19 06:48:21;;;;;;;8.50;5.85;;;30.30;41.40;;;;;;5056824;28;20029;-79
2022/07/19 06:50:47;;;;;;;5.43;2.00;;;29.70;41.70;;;;;;5057633;28;20029;-80
2022/07/19 06:53:13;;;;;;;6.85;2.00;;;29.80;42.70;;;;;;5057124;28;20040;-78
2022/07/19 06:55:38;;;;;;;2.90;1.70;;;30.20;41.90;;;;;;5057526;28;20025;-80
2022/07/19 06:58:04;;;;;;;12.10;2.25;;;30.70;41.90;;;;;;5055619;28;20124;-79
2022/07/19 07:00:30;;;;;;;5.15;2.08;;;30.80;41.70;;;;;;5056969;28;20021;-82
2022/07/19 07:02:57;;;;;;;7.03;2.00;;;30.50;41.90;;;;;;5056942;28;20032;-81
2022/07/19 07:05:23;;;;;;;3.25;1.80;;;30.60;42.50;;;;;;5056672;28;20092;-76
2022/07/19 07:07:51;;;;;;;6.47;2.00;;;30.00;41.70;;;;;;5056863;28;20433;-81
2022/07/19 07:10:17;;;;;;;4.85;1.92;;;29.50;42.50;;;;;;5056870;28;20025;-83
2022/07/19 07:12:42;;;;;;;4.57;2.10;;;29.80;43.40;;;;;;5056755;28;20033;-78
2022/07/19 07:15:08;;;;;;;5.32;2.00;;;30.20;41.30;;;;;;5057220;28;20142;-78
2022/07/19 07:17:35;;;;;;;3.67;1.90;;;30.50;43.10;;;;;;5057028;28;20028;-85
2022/07/19 07:20:02;;;;;;;5.22;2.10;;;30.70;41.60;;;;;;5056277;28;20032;-80
2022/07/19 07:22:28;;;;;;;4.47;2.00;;;31.20;42.00;;;;;;5056196;28;20422;-81
2022/07/19 07:24:54;;;;;;;4.05;2.00;;;31.70;40.80;;;;;;5056144;28;20472;-81
2022/07/19 07:27:20;;;;;;;5.40;1.80;;;32.10;40.20;;;;;;5055805;28;20429;-76
2022/07/19 07:29:46;;;;;;;4.20;1.88;;;31.90;40.10;;;;;;5055733;28;20032;-90
2022/07/19 07:32:11;;;;;;;3.72;1.83;;;31.90;40.50;;;;;;5056441;28;20476;-87
2022/07/19 07:34:37;;;;;;;3.10;1.65;;;32.20;40.90;;;;;;5056812;28;20745;-80
2022/07/19 07:37:03;;;;;;;8.00;1.80;;;32.40;40.80;;;;;;5054683;28;20119;-76
2022/07/19 07:39:28;;;;;;;3.70;1.77;;;32.10;39.20;;;;;;5055982;28;20112;-78
2022/07/19 07:41:54;;;;;;;5.78;1.73;;;31.40;39.70;;;;;;5039146;28;20361;-81
2022/07/19 07:44:19;;;;;;;3.13;1.73;;;31.70;40.20;;;;;;5054486;28;20028;-76
2022/07/19 07:46:45;;;;;;;6.05;1.90;;;31.70;39.60;;;;;;5057384;28;20028;-84
2022/07/19 07:49:11;;;;;;;3.70;1.73;;;31.60;40.30;;;;;;5055353;28;20518;-77
2022/07/19 07:51:37;;;;;;;5.13;1.70;;;32.10;41.00;;;;;;5055654;28;20448;-75
2022/07/19 07:54:03;;;;;;;4.05;1.90;;;31.80;40.20;;;;;;5055755;28;20090;-79
2022/07/19 07:56:29;;;;;;;3.92;1.77;;;31.60;40.70;;;;;;5055569;28;20028;-78
2022/07/19 07:58:54;;;;;;;3.50;1.80;;;31.70;40.90;;;;;;5037729;28;20025;-75
2022/07/19 08:01:20;;;;;;;4.00;2.00;;;32.00;40.60;;;;;;5055887;28;20029;-82
2022/07/19 08:03:46;;;;;;;4.10;1.98;;;32.20;40.50;;;;;;5055570;28;20021;-79
2022/07/19 08:06:12;;;;;;;3.90;1.75;;;32.60;41.10;;;;;;5056186;28;20104;-80
2022/07/19 08:08:38;;;;;;;3.20;1.73;;;33.00;41.30;;;;;;5055959;28;20033;-76
2022/07/19 08:11:04;;;;;;;4.28;1.83;;;33.10;39.90;;;;;;5055267;28;20017;-78
2022/07/19 08:13:30;;;;;;;4.25;1.80;;;33.00;40.20;;;;;;5055021;28;20033;-77
2022/07/19 08:15:56;;;;;;;4.82;2.00;;;32.70;40.20;;;;;;5055576;28;20031;-76
2022/07/19 08:18:22;;;;;;;3.83;1.67;;;33.00;40.50;;;;;;5055019;28;20025;-78
2022/07/19 08:20:48;;;;;;;7.47;2.00;;;32.60;40.50;;;;;;5054928;28;20029;-80
2022/07/19 08:23:14;;;;;;;3.53;1.80;;;32.20;40.50;;;;;;5055488;28;20029;-79
2022/07/19 08:25:39;;;;;;;3.63;1.73;;;32.30;40.70;;;;;;5055118;28;20029;-79
2022/07/19 08:28:06;;;;;;;5.13;2.20;;;32.30;40.60;;;;;;5054850;28;20024;-81
2022/07/19 08:30:32;;;;;;;5.35;1.90;;;32.50;40.80;;;;;;5054985;28;20021;-78
2022/07/19 08:32:58;;;;;;;5.43;1.83;;;32.80;40.10;;;;;;5054793;28;20067;-75
2022/07/19 08:35:24;;;;;;;9.93;1.95;;;32.80;40.70;;;;;;5054571;28;20021;-76
2022/07/19 08:37:50;;;;;;;5.95;2.00;;;32.70;40.40;;;;;;5055298;28;20032;-78
2022/07/19 08:40:15;;;;;;;5.10;1.67;;;32.80;40.30;;;;;;5055413;28;20075;-81
2022/07/19 08:42:42;;;;;;;4.15;1.80;;;33.30;40.60;;;;;;5054535;28;20027;-83
2022/07/19 08:45:10;;;;;;;6.35;2.10;;;33.60;40.20;;;;;;5053671;28;20028;-78
2022/07/19 08:47:37;;;;;;;4.38;1.92;;;33.90;39.50;;;;;;5054865;28;20365;-79
2022/07/19 08:50:08;;;;;;;6.00;2.40;;;34.30;40.30;;;;;;5054070;28;20059;-77
2022/07/19 08:52:34;;;;;;;4.50;2.00;;;34.60;39.60;;;;;;5054868;28;20124;-86
2022/07/19 08:55:01;;;;;;;3.33;1.98;;;34.60;39.40;;;;;;5054787;28;20021;-79
2022/07/19 09:00:12;;;;;;;4.20;1.90;;;34.50;38.40;;;;;;5054818;28;20032;-79
2022/07/19 09:02:38;;;;;;;5.63;1.90;;;34.00;38.80;;;;;;5054657;28;20155;-81
2022/07/19 09:05:07;;;;;;;3.83;1.95;;;33.90;39.40;;;;;;5054132;28;20494;-78
2022/07/19 09:07:39;;;;;;;4.15;2.13;;;34.10;39.50;;;;;;5054216;28;20055;-80
2022/07/19 09:10:20;;;;;;;4.22;2.00;;;34.10;39.20;;;;;;5054880;28;20040;-79
2022/07/19 09:13:06;;;;;;;;;;;34.60;39.80;;;;;;5053606;28;20033;-80
2022/07/19 09:15:50;;;;;;;4.43;2.00;;;35.00;38.80;;;;;;5054083;28;20325;-79
2022/07/19 09:18:24;;;;;;;5.07;1.90;;;35.50;38.30;;;;;;5053919;28;20508;-79
2022/07/19 09:20:55;;;;;;;3.28;1.80;;;35.20;38.70;;;;;;5054074;28;20032;-80
2022/07/19 09:23:21;;;;;;;6.78;1.90;;;35.00;38.60;;;;;;5054056;28;20037;-85
2022/07/19 09:25:56;;;;;;;3.67;1.80;;;35.00;38.60;;;;;;5053434;28;20036;-79
2022/07/19 09:28:24;;;;;;;3.55;1.88;;;35.20;39.50;;;;;;5054503;28;20029;-81
2022/07/19 09:30:55;;;;;;;3.80;1.90;;;35.60;38.80;;;;;;5052356;28;20108;-75
2022/07/19 09:33:26;;;;;;;5.07;2.00;;;35.60;37.60;;;;;;5054328;28;20040;-81
2022/07/19 09:36:02;;;;;;;6.00;2.10;;;35.30;39.00;;;;;;5054072;28;20021;-84
2022/07/19 09:38:30;;;;;;;4.03;1.90;;;35.40;39.10;;;;;;5053811;28;20020;-80
2022/07/19 09:41:11;;;;;;;4.30;1.90;;;35.70;38.60;;;;;;5053682;28;20089;-78
2022/07/19 09:43:50;;;;;;;4.32;1.70;;;35.60;38.50;;;;;;5053751;28;20079;-83
2022/07/19 09:46:34;;;;;;;4.40;1.98;;;35.40;38.80;;;;;;5053664;28;20032;-79
2022/07/19 09:49:13;;;;;;;4.35;1.80;;;35.40;39.60;;;;;;5035538;28;20130;-81
2022/07/19 09:51:45;;;;;;;6.30;2.10;;;35.60;38.90;;;;;;5053588;28;20029;-78
2022/07/19 09:54:14;;;;;;;4.60;1.98;;;35.80;38.60;;;;;;5054498;28;20155;-78
2022/07/19 09:56:43;;;;;;;2.95;1.65;;;35.50;38.40;;;;;;5058478;28;20044;-78
2022/07/19 09:59:09;;;;;;;5.80;1.80;;;35.30;38.20;;;;;;5059839;28;20027;-82
2022/07/19 10:01:35;;;;;;;3.50;1.80;;;35.60;39.10;;;;;;5060617;28;20422;-77
2022/07/19 10:04:08;;;;;;;4.40;1.70;;;36.10;38.80;;;;;;5060522;28;20037;-80
2022/07/19 10:06:35;;;;;;;5.13;2.28;;;36.40;38.40;;;;;;5043354;28;20021;-80
2022/07/19 10:09:06;;;;;;;8.43;1.90;;;36.80;38.90;;;;;;5059020;28;20039;-85
2022/07/19 10:11:32;;;;;;;8.48;1.70;;;36.80;38.00;;;;;;5061303;28;20109;-84
2022/07/19 10:13:58;;;;;;;4.45;1.80;;;36.60;37.90;;;;;;5043702;28;20431;-86
2022/07/19 10:16:39;;;;;;;3.97;1.85;;;36.60;37.40;;;;;;5062024;28;20494;-79
2022/07/19 10:19:36;;;;;;;3.95;1.70;;;36.70;37.10;;;;;;5060908;28;20436;-80
2022/07/19 10:22:02;;;;;;;4.95;1.80;;;36.60;36.50;;;;;;5060441;28;20531;-79
2022/07/19 10:24:48;;;;;;;2.97;1.67;;;36.30;36.80;;;;;;5060750;28;20029;-83
2022/07/19 10:27:39;;;;;;;3.00;1.58;;;36.30;37.10;;;;;;5061503;28;20025;-84
2022/07/19 10:30:07;;;;;;;3.85;1.70;;;36.70;37.30;;;;;;5075988;28;20064;-91
2022/07/19 10:32:33;;;;;;;8.75;1.92;;;36.90;38.00;;;;;;5061602;28;20132;-86
2022/07/19 10:35:27;;;;;;;3.53;1.70;;;37.00;36.70;;;;;;5079424;28;20421;-79
2022/07/19 10:37:53;;;;;;;5.07;1.95;;;37.20;37.60;;;;;;5077987;28;20044;-85
2022/07/19 10:40:43;;;;;;;6.00;1.90;;;37.00;36.50;;;;;;5060230;28;20062;-78
2022/07/19 10:43:12;;;;;;;6.68;1.80;;;37.10;37.00;;;;;;5077020;28;20111;-83
2022/07/19 10:46:01;;;;;;;3.67;1.93;;;37.30;37.80;;;;;;5060747;28;20078;-91
2022/07/19 10:48:48;;;;;;;5.45;2.10;;;37.40;37.30;;;;;;5064220;28;20033;-79
2022/07/19 10:51:33;;;;;;;3.92;1.83;;;37.80;38.60;;;;;;5074094;28;20028;-76
2022/07/19 10:54:03;;;;;;;4.25;2.10;;;37.80;36.50;;;;;;5056428;28;20483;-77
2022/07/19 10:56:39;;;;;;;3.78;1.75;;;37.20;36.40;;;;;;5077453;28;20024;-83
2022/07/19 10:59:12;;;;;;;3.35;1.98;;;36.90;36.90;;;;;;5054867;28;20048;-80
2022/07/19 11:01:53;;;;;;;4.50;1.80;;;37.10;37.00;;;;;;5079054;28;20375;-87
2022/07/19 11:04:34;;;;;;;4.43;1.98;;;37.40;37.10;;;;;;5060739;28;20552;-87
2022/07/19 11:07:11;;;;;;;5.30;1.60;;;37.90;37.00;;;;;;5075748;28;20025;-86
2022/07/19 11:10:02;;;;;;;4.03;1.73;;;38.20;37.10;;;;;;5058390;28;20021;-79
2022/07/19 11:12:36;;;;;;;4.28;1.88;;;38.30;36.90;;;;;;5051243;28;20337;-84
2022/07/19 11:15:05;;;;;;;5.03;1.60;;;38.30;36.40;;;;;;5075859;28;20078;-83
2022/07/19 11:17:31;;;;;;;4.22;1.83;;;38.40;36.20;;;;;;5074963;28;20024;-80
2022/07/19 11:20:07;;;;;;;4.55;1.90;;;38.30;35.80;;;;;;5073998;28;20021;-78
2022/07/19 11:22:39;;;;;;;5.25;1.65;;;37.60;35.60;;;;;;5071341;28;20151;-79
2022/07/19 11:25:06;;;;;;;5.18;1.80;;;36.50;36.60;;;;;;5075041;28;20025;-76
2022/07/19 11:27:33;;;;;;;5.05;1.88;;;36.50;36.20;;;;;;5070298;28;20111;-85
2022/07/19 11:30:01;;;;;;;5.05;1.88;;;36.80;36.60;;;;;;5056821;28;20536;-77
2022/07/19 11:32:27;;;;;;;6.57;1.77;;;36.90;36.30;;;;;;5073847;28;20064;-83
2022/07/19 11:34:58;;;;;;;3.78;1.90;;;37.00;36.60;;;;;;5075033;28;20099;-90
2022/07/19 11:37:32;;;;;;;8.27;2.15;;;37.20;37.80;;;;;;5057721;28;20498;-86
2022/07/19 11:39:58;;;;;;;2.92;1.50;;;37.60;37.20;;;;;;5075889;28;20074;-85
2022/07/19 11:42:29;;;;;;;6.30;1.80;;;37.80;36.60;;;;;;5056914;28;20475;-78
2022/07/19 11:44:55;;;;;;;3.45;1.70;;;37.40;35.90;;;;;;5073754;28;20036;-80
2022/07/19 11:47:21;;;;;;;5.03;1.80;;;36.80;38.00;;;;;;5056983;28;20031;-76
2022/07/19 11:49:47;;;;;;;7.68;1.85;;;37.10;36.20;;;;;;5074551;28;20025;-81
2022/07/19 11:52:19;;;;;;;4.78;1.70;;;37.30;35.80;;;;;;5056130;28;20017;-86
2022/07/19 11:54:59;;;;;;;6.95;1.98;;;37.60;36.20;;;;;;5056457;28;20029;-80
2022/07/19 11:57:25;;;;;;;4.22;1.80;;;38.00;36.60;;;;;;5054817;28;20021;-84
2022/07/19 11:59:51;;;;;;;5.07;1.60;;;38.00;36.20;;;;;;5055365;28;20028;-77
2022/07/19 12:02:16;;;;;;;3.15;1.50;;;37.70;36.50;;;;;;5073784;28;20028;-79
2022/07/19 12:04:42;;;;;;;4.50;1.70;;;37.50;37.10;;;;;;5074051;28;20471;-80
2022/07/19 12:07:08;;;;;;;5.50;1.80;;;37.60;37.30;;;;;;5074646;28;20048;-80
2022/07/19 12:09:34;;;;;;;4.70;1.70;;;37.80;37.90;;;;;;5074239;28;20016;-87
2022/07/19 12:12:15;;;;;;;6.05;1.80;;;38.20;36.40;;;;;;5074185;28;20055;-77
2022/07/19 12:14:41;;;;;;;3.05;1.60;;;38.40;35.80;;;;;;5051690;28;20066;-80
2022/07/19 12:17:18;;;;;;;3.20;1.70;;;38.30;36.40;;;;;;5074347;28;20467;-89
2022/07/19 12:19:52;;;;;;;3.35;1.50;;;38.40;36.50;;;;;;5056174;28;20115;-77
2022/07/19 12:22:39;;;;;;;4.50;1.70;;;38.50;37.00;;;;;;5071765;28;20029;-80
2022/07/19 12:25:09;;;;;;;3.60;1.80;;;38.50;36.20;;;;;;5074838;28;20086;-81
2022/07/19 12:27:36;;;;;;;4.32;1.77;;;38.40;36.50;;;;;;5056595;28;20455;-84
2022/07/19 12:30:03;;;;;;;3.58;1.90;;;38.50;36.30;;;;;;5057316;28;20102;-87
2022/07/19 12:32:45;;;;;;;3.40;1.80;;;38.50;36.30;;;;;;5074512;28;20499;-85
2022/07/19 12:35:13;;;;;;;3.22;1.42;;;38.60;37.20;;;;;;5056075;28;20067;-77
2022/07/19 12:37:50;;;;;;;4.72;1.80;;;38.30;36.20;;;;;;5073886;28;20021;-78
2022/07/19 12:40:25;;;;;;;3.30;1.60;;;38.10;35.80;;;;;;5074040;28;20120;-83
2022/07/19 12:43:05;;;;;;;4.60;1.77;;;38.30;37.20;;;;;;5073931;28;20040;-78
2022/07/19 12:45:32;;;;;;;;;;;38.40;36.50;;;;;;5056615;28;20016;-77
2022/07/19 12:47:58;;;;;;;3.97;1.80;;;38.30;35.70;;;;;;5074403;28;19912;-87
2022/07/19 12:50:24;;;;;;;2.63;1.70;;;38.30;37.50;;;;;;5056493;28;20035;-84
2022/07/19 12:52:52;;;;;;;2.42;1.40;;;38.40;36.30;;;;;;5056164;28;20041;-81
2022/07/19 12:55:18;;;;;;;5.30;1.73;;;38.50;35.90;;;;;;5056473;28;20058;-79
2022/07/19 12:57:44;;;;;;;2.80;1.50;;;38.60;35.90;;;;;;5073813;28;20521;-79
2022/07/19 13:00:11;;;;;;;3.92;1.55;;;38.60;36.10;;;;;;5073828;28;20467;-78